sensor_id;sensor_type;location;lat;lon;timestamp;pressure;altitude;pressure_sealevel;temperature;humidity
8451;BME280;4262;50.980;13.892;2022-10-26T00:01:04;50801.59;;;-142.97;82.21
8451;BME280;4262;50.980;13.892;2022-10-26T00:03:32;50768.44;;;-142.97;82.20
8451;BME280;4262;50.980;13.892;2022-10-26T00:06:08;50805.50;;;-142.97;82.03
8451;BME280;4262;50.980;13.892;2022-10-26T00:08:36;50791.84;;;-142.97;81.28
8451;BME280;4262;50.980;13.892;2022-10-26T00:11:04;50787.94;;;-142.97;81.94
8451;BME280;4262;50.980;13.892;2022-10-26T00:13:31;50768.44;;;-142.97;81.61
8451;BME280;4262;50.980;13.892;2022-10-26T00:15:58;50813.28;;;-142.97;82.09
8451;BME280;4262;50.980;13.892;2022-10-26T00:18:26;50832.78;;;-142.97;81.47
8451;BME280;4262;50.980;13.892;2022-10-26T00:20:52;50801.59;;;-142.97;81.83
8451;BME280;4262;50.980;13.892;2022-10-26T00:23:20;50774.28;;;-142.97;81.86
8451;BME280;4262;50.980;13.892;2022-10-26T00:25:54;50770.38;;;-142.97;82.21
8451;BME280;4262;50.980;13.892;2022-10-26T00:28:21;50815.22;;;-142.97;82.28
8451;BME280;4262;50.980;13.892;2022-10-26T00:30:48;50799.63;;;-142.97;82.27
8451;BME280;4262;50.980;13.892;2022-10-26T00:33:15;50778.19;;;-142.97;82.43
8451;BME280;4262;50.980;13.892;2022-10-26T00:35:42;50795.75;;;-142.97;82.72
8451;BME280;4262;50.980;13.892;2022-10-26T00:38:09;50754.78;;;-142.97;82.98
8451;BME280;4262;50.980;13.892;2022-10-26T00:40:36;50758.69;;;-142.97;82.16
8451;BME280;4262;50.980;13.892;2022-10-26T00:43:12;50803.53;;;-142.97;82.16
8451;BME280;4262;50.980;13.892;2022-10-26T00:45:40;50758.69;;;-142.97;82.02
8451;BME280;4262;50.980;13.892;2022-10-26T00:48:13;50784.03;;;-142.97;81.94
8451;BME280;4262;50.980;13.892;2022-10-26T00:50:42;50752.84;;;-142.97;82.53
8451;BME280;4262;50.980;13.892;2022-10-26T00:53:11;50789.88;;;-142.97;82.66
8451;BME280;4262;50.980;13.892;2022-10-26T00:55:42;50797.69;;;-142.97;82.55
8451;BME280;4262;50.980;13.892;2022-10-26T00:58:12;50795.75;;;-142.97;82.87
8451;BME280;4262;50.980;13.892;2022-10-26T01:00:41;50805.50;;;-142.97;83.01
8451;BME280;4262;50.980;13.892;2022-10-26T01:03:09;50807.44;;;-142.97;82.48
8451;BME280;4262;50.980;13.892;2022-10-26T01:05:39;50793.78;;;-142.97;82.41
8451;BME280;4262;50.980;13.892;2022-10-26T01:08:07;50785.97;;;-142.97;81.45
8451;BME280;4262;50.980;13.892;2022-10-26T01:10:37;50817.19;;;-142.97;81.00
8451;BME280;4262;50.980;13.892;2022-10-26T01:13:05;50780.13;;;-142.97;81.29
8451;BME280;4262;50.980;13.892;2022-10-26T01:15:39;50768.44;;;-142.97;81.11
8451;BME280;4262;50.980;13.892;2022-10-26T01:18:16;50784.03;;;-142.97;81.20
8451;BME280;4262;50.980;13.892;2022-10-26T01:21:02;50776.25;;;-142.97;82.02
8451;BME280;4262;50.980;13.892;2022-10-26T01:23:37;50787.94;;;-142.97;81.97
8451;BME280;4262;50.980;13.892;2022-10-26T01:29:36;50739.19;;;-142.97;81.42
8451;BME280;4262;50.980;13.892;2022-10-26T01:32:13;50774.28;;;-142.97;81.28
8451;BME280;4262;50.980;13.892;2022-10-26T01:34:43;50764.53;;;-142.97;82.05
8451;BME280;4262;50.980;13.892;2022-10-26T01:37:14;50780.13;;;-142.97;81.56
8451;BME280;4262;50.980;13.892;2022-10-26T01:39:47;50787.94;;;-142.97;81.64
8451;BME280;4262;50.980;13.892;2022-10-26T01:42:17;50801.59;;;-142.97;82.28
8451;BME280;4262;50.980;13.892;2022-10-26T01:44:47;50789.88;;;-142.97;82.04
8451;BME280;4262;50.980;13.892;2022-10-26T01:47:17;50772.34;;;-142.97;82.39
8451;BME280;4262;50.980;13.892;2022-10-26T01:49:49;50776.25;;;-142.97;82.15
8451;BME280;4262;50.980;13.892;2022-10-26T01:52:18;50774.28;;;-142.97;82.62
8451;BME280;4262;50.980;13.892;2022-10-26T01:54:46;50780.13;;;-142.97;82.18
8451;BME280;4262;50.980;13.892;2022-10-26T01:57:14;50737.25;;;-142.97;83.07
8451;BME280;4262;50.980;13.892;2022-10-26T01:59:59;50787.94;;;-142.97;83.73
8451;BME280;4262;50.980;13.892;2022-10-26T02:02:54;50762.59;;;-142.97;84.04
8451;BME280;4262;50.980;13.892;2022-10-26T02:05:35;50780.13;;;-142.97;83.61
8451;BME280;4262;50.980;13.892;2022-10-26T02:08:13;50747.00;;;-142.97;83.84
8451;BME280;4262;50.980;13.892;2022-10-26T02:10:53;50782.09;;;-142.97;83.77
8451;BME280;4262;50.980;13.892;2022-10-26T02:13:30;50784.03;;;-142.97;83.07
8451;BME280;4262;50.980;13.892;2022-10-26T02:16:05;50774.28;;;-142.97;83.21
8451;BME280;4262;50.980;13.892;2022-10-26T02:18:43;50799.63;;;-142.97;83.12
8451;BME280;4262;50.980;13.892;2022-10-26T02:21:16;50770.38;;;-142.97;82.46
8451;BME280;4262;50.980;13.892;2022-10-26T02:23:46;50791.84;;;-142.97;83.11
8451;BME280;4262;50.980;13.892;2022-10-26T02:26:15;50809.38;;;-142.97;83.04
8451;BME280;4262;50.980;13.892;2022-10-26T02:28:47;50803.53;;;-142.97;82.57
8451;BME280;4262;50.980;13.892;2022-10-26T02:31:16;50770.38;;;-142.97;81.80
8451;BME280;4262;50.980;13.892;2022-10-26T02:33:48;50762.59;;;-142.97;82.26
8451;BME280;4262;50.980;13.892;2022-10-26T02:36:21;50828.88;;;-142.97;82.24
8451;BME280;4262;50.980;13.892;2022-10-26T02:38:50;50747.00;;;-142.97;82.62
8451;BME280;4262;50.980;13.892;2022-10-26T02:41:20;50830.84;;;-142.97;83.22
8451;BME280;4262;50.980;13.892;2022-10-26T02:43:51;50791.84;;;-142.97;82.80
8451;BME280;4262;50.980;13.892;2022-10-26T02:46:20;50780.13;;;-142.97;82.98
8451;BME280;4262;50.980;13.892;2022-10-26T02:48:50;50764.53;;;-142.97;82.70
8451;BME280;4262;50.980;13.892;2022-10-26T02:51:19;50807.44;;;-142.97;83.05
8451;BME280;4262;50.980;13.892;2022-10-26T02:53:53;50772.34;;;-142.97;83.20
8451;BME280;4262;50.980;13.892;2022-10-26T02:56:25;50758.69;;;-142.97;83.41
8451;BME280;4262;50.980;13.892;2022-10-26T02:58:56;50754.78;;;-142.97;83.56
8451;BME280;4262;50.980;13.892;2022-10-26T03:01:26;50785.97;;;-142.97;83.56
8451;BME280;4262;50.980;13.892;2022-10-26T03:03:57;50789.88;;;-142.97;83.75
8451;BME280;4262;50.980;13.892;2022-10-26T03:06:25;50778.19;;;-142.97;84.20
8451;BME280;4262;50.980;13.892;2022-10-26T03:08:51;50780.13;;;-142.97;84.57
8451;BME280;4262;50.980;13.892;2022-10-26T03:11:19;50782.09;;;-142.97;84.01
8451;BME280;4262;50.980;13.892;2022-10-26T03:13:46;50764.53;;;-142.97;84.00
8451;BME280;4262;50.980;13.892;2022-10-26T03:16:13;50774.28;;;-142.97;83.63
8451;BME280;4262;50.980;13.892;2022-10-26T03:18:40;50760.63;;;-142.97;83.18
8451;BME280;4262;50.980;13.892;2022-10-26T03:21:09;50793.78;;;-142.97;83.68
8451;BME280;4262;50.980;13.892;2022-10-26T03:23:36;50768.44;;;-142.97;84.02
8451;BME280;4262;50.980;13.892;2022-10-26T03:26:03;50797.69;;;-142.97;83.89
8451;BME280;4262;50.980;13.892;2022-10-26T03:28:30;50787.94;;;-142.97;83.57
8451;BME280;4262;50.980;13.892;2022-10-26T03:30:56;50778.19;;;-142.97;83.54
8451;BME280;4262;50.980;13.892;2022-10-26T03:33:23;50793.78;;;-142.97;84.14
8451;BME280;4262;50.980;13.892;2022-10-26T03:35:53;50756.75;;;-142.97;83.59
8451;BME280;4262;50.980;13.892;2022-10-26T03:38:22;50791.84;;;-142.97;83.45
8451;BME280;4262;50.980;13.892;2022-10-26T03:40:49;50801.59;;;-142.97;83.97
8451;BME280;4262;50.980;13.892;2022-10-26T03:43:16;50752.84;;;-142.97;84.01
8451;BME280;4262;50.980;13.892;2022-10-26T03:45:44;50725.53;;;-142.97;83.91
8451;BME280;4262;50.980;13.892;2022-10-26T03:48:12;50805.50;;;-142.97;84.00
8451;BME280;4262;50.980;13.892;2022-10-26T03:50:38;50754.78;;;-142.97;83.89
8451;BME280;4262;50.980;13.892;2022-10-26T03:53:05;50789.88;;;-142.97;83.54
8451;BME280;4262;50.980;13.892;2022-10-26T03:55:33;50774.28;;;-142.97;83.69
8451;BME280;4262;50.980;13.892;2022-10-26T03:58:00;50760.63;;;-142.97;83.79
8451;BME280;4262;50.980;13.892;2022-10-26T04:00:27;50758.69;;;-142.97;83.60
8451;BME280;4262;50.980;13.892;2022-10-26T04:02:56;50772.34;;;-142.97;84.12
8451;BME280;4262;50.980;13.892;2022-10-26T04:05:24;50782.09;;;-142.97;83.72
8451;BME280;4262;50.980;13.892;2022-10-26T04:07:52;50803.53;;;-142.97;83.48
8451;BME280;4262;50.980;13.892;2022-10-26T04:10:19;50797.69;;;-142.97;83.62
8451;BME280;4262;50.980;13.892;2022-10-26T04:12:47;50813.28;;;-142.97;83.90
8451;BME280;4262;50.980;13.892;2022-10-26T04:15:14;50764.53;;;-142.97;84.46
8451;BME280;4262;50.980;13.892;2022-10-26T04:17:41;50778.19;;;-142.97;84.08
8451;BME280;4262;50.980;13.892;2022-10-26T04:20:09;50752.84;;;-142.97;84.08
8451;BME280;4262;50.980;13.892;2022-10-26T04:22:35;50791.84;;;-142.97;83.98
8451;BME280;4262;50.980;13.892;2022-10-26T04:25:03;50821.09;;;-142.97;84.43
8451;BME280;4262;50.980;13.892;2022-10-26T04:27:30;50801.59;;;-142.97;84.30
8451;BME280;4262;50.980;13.892;2022-10-26T04:29:58;50776.25;;;-142.97;83.68
8451;BME280;4262;50.980;13.892;2022-10-26T04:32:26;50785.97;;;-142.97;83.87
8451;BME280;4262;50.980;13.892;2022-10-26T04:34:52;50778.19;;;-142.97;83.52
8451;BME280;4262;50.980;13.892;2022-10-26T04:37:19;50811.34;;;-142.97;83.27
8451;BME280;4262;50.980;13.892;2022-10-26T04:39:46;50748.94;;;-142.97;82.84
8451;BME280;4262;50.980;13.892;2022-10-26T04:42:13;50807.44;;;-142.97;83.15
8451;BME280;4262;50.980;13.892;2022-10-26T04:44:39;50778.19;;;-142.97;83.68
8451;BME280;4262;50.980;13.892;2022-10-26T04:47:07;50784.03;;;-142.97;83.76
8451;BME280;4262;50.980;13.892;2022-10-26T04:49:34;50785.97;;;-142.97;84.04
8451;BME280;4262;50.980;13.892;2022-10-26T04:52:01;50789.88;;;-142.97;83.62
8451;BME280;4262;50.980;13.892;2022-10-26T04:54:28;50784.03;;;-142.97;83.81
8451;BME280;4262;50.980;13.892;2022-10-26T04:56:55;50782.09;;;-142.97;83.67
8451;BME280;4262;50.980;13.892;2022-10-26T04:59:22;50762.59;;;-142.97;84.34
8451;BME280;4262;50.980;13.892;2022-10-26T05:01:49;50782.09;;;-142.97;84.81
8451;BME280;4262;50.980;13.892;2022-10-26T05:04:17;50772.34;;;-142.97;84.94
8451;BME280;4262;50.980;13.892;2022-10-26T05:06:44;50789.88;;;-142.97;84.87
8451;BME280;4262;50.980;13.892;2022-10-26T05:09:10;50784.03;;;-142.97;85.04
8451;BME280;4262;50.980;13.892;2022-10-26T05:11:37;50805.50;;;-142.97;85.62
8451;BME280;4262;50.980;13.892;2022-10-26T05:14:04;50776.25;;;-142.97;86.51
8451;BME280;4262;50.980;13.892;2022-10-26T05:16:31;50793.78;;;-142.97;86.58
8451;BME280;4262;50.980;13.892;2022-10-26T05:18:57;50801.59;;;-142.97;86.71
8451;BME280;4262;50.980;13.892;2022-10-26T05:21:25;50772.34;;;-142.97;86.74
8451;BME280;4262;50.980;13.892;2022-10-26T05:23:52;50785.97;;;-142.97;86.82
8451;BME280;4262;50.980;13.892;2022-10-26T05:26:20;50836.69;;;-142.97;86.61
8451;BME280;4262;50.980;13.892;2022-10-26T05:28:47;50745.03;;;-142.97;86.71
8451;BME280;4262;50.980;13.892;2022-10-26T05:31:14;50799.63;;;-142.97;86.63
8451;BME280;4262;50.980;13.892;2022-10-26T05:33:41;50789.88;;;-142.97;86.75
8451;BME280;4262;50.980;13.892;2022-10-26T05:36:08;50778.19;;;-142.97;86.93
8451;BME280;4262;50.980;13.892;2022-10-26T05:38:37;50787.94;;;-142.97;87.45
8451;BME280;4262;50.980;13.892;2022-10-26T05:41:04;50772.34;;;-142.97;87.14
8451;BME280;4262;50.980;13.892;2022-10-26T05:43:31;50778.19;;;-142.97;87.52
8451;BME280;4262;50.980;13.892;2022-10-26T05:45:57;50815.22;;;-142.97;87.27
8451;BME280;4262;50.980;13.892;2022-10-26T05:48:24;50756.75;;;-142.97;87.50
8451;BME280;4262;50.980;13.892;2022-10-26T05:50:51;50805.50;;;-142.97;86.67
8451;BME280;4262;50.980;13.892;2022-10-26T05:53:18;50799.63;;;-142.97;86.52
8451;BME280;4262;50.980;13.892;2022-10-26T05:55:47;50789.88;;;-142.97;86.51
8451;BME280;4262;50.980;13.892;2022-10-26T05:58:14;50782.09;;;-142.97;86.64
8451;BME280;4262;50.980;13.892;2022-10-26T06:00:51;50743.09;;;-142.97;87.33
8451;BME280;4262;50.980;13.892;2022-10-26T06:03:31;50750.88;;;-142.97;87.84
8451;BME280;4262;50.980;13.892;2022-10-26T06:06:02;50805.50;;;-142.97;87.86
8451;BME280;4262;50.980;13.892;2022-10-26T06:08:30;50756.75;;;-142.97;88.49
8451;BME280;4262;50.980;13.892;2022-10-26T06:10:58;50768.44;;;-142.97;88.11
8451;BME280;4262;50.980;13.892;2022-10-26T06:13:27;50708.00;;;-142.97;87.74
8451;BME280;4262;50.980;13.892;2022-10-26T06:16:10;50776.25;;;-142.97;87.24
8451;BME280;4262;50.980;13.892;2022-10-26T06:18:51;50787.94;;;-142.97;87.34
8451;BME280;4262;50.980;13.892;2022-10-26T06:21:29;50782.09;;;-142.97;87.41
8451;BME280;4262;50.980;13.892;2022-10-26T06:24:03;50754.78;;;-142.97;87.36
8451;BME280;4262;50.980;13.892;2022-10-26T06:26:40;50774.28;;;-142.97;86.75
8451;BME280;4262;50.980;13.892;2022-10-26T06:29:17;50774.28;;;-142.97;86.75
8451;BME280;4262;50.980;13.892;2022-10-26T06:31:46;50750.88;;;-142.97;86.13
8451;BME280;4262;50.980;13.892;2022-10-26T06:34:17;50791.84;;;-142.97;86.25
8451;BME280;4262;50.980;13.892;2022-10-26T06:36:48;50801.59;;;-142.97;86.22
8451;BME280;4262;50.980;13.892;2022-10-26T06:39:16;50764.53;;;-142.97;86.25
8451;BME280;4262;50.980;13.892;2022-10-26T06:41:46;50776.25;;;-142.97;86.20
8451;BME280;4262;50.980;13.892;2022-10-26T06:44:19;50793.78;;;-142.97;86.44
8451;BME280;4262;50.980;13.892;2022-10-26T06:46:47;50747.00;;;-142.97;85.13
8451;BME280;4262;50.980;13.892;2022-10-26T06:49:18;50791.84;;;-142.97;84.78
8451;BME280;4262;50.980;13.892;2022-10-26T06:51:52;50774.28;;;-142.97;84.69
8451;BME280;4262;50.980;13.892;2022-10-26T06:54:24;50764.53;;;-142.97;83.66
8451;BME280;4262;50.980;13.892;2022-10-26T06:56:56;50770.38;;;-142.97;83.23
8451;BME280;4262;50.980;13.892;2022-10-26T06:59:37;50725.53;;;-142.97;83.23
8451;BME280;4262;50.980;13.892;2022-10-26T07:02:08;50782.09;;;-142.97;83.33
8451;BME280;4262;50.980;13.892;2022-10-26T07:04:35;50778.19;;;-142.97;83.88
8451;BME280;4262;50.980;13.892;2022-10-26T07:07:01;50803.53;;;-142.97;84.09
8451;BME280;4262;50.980;13.892;2022-10-26T07:09:28;50758.69;;;-142.97;84.02
8451;BME280;4262;50.980;13.892;2022-10-26T07:11:56;50791.84;;;-142.97;84.94
8451;BME280;4262;50.980;13.892;2022-10-26T07:14:23;50729.44;;;-142.97;85.28
8451;BME280;4262;50.980;13.892;2022-10-26T07:16:50;50811.34;;;-142.97;83.87
8451;BME280;4262;50.980;13.892;2022-10-26T07:19:17;50776.25;;;-142.97;84.34
8451;BME280;4262;50.980;13.892;2022-10-26T07:21:44;50797.69;;;-142.97;85.43
8451;BME280;4262;50.980;13.892;2022-10-26T07:24:11;50743.09;;;-142.97;84.32
8451;BME280;4262;50.980;13.892;2022-10-26T07:26:37;50789.88;;;-142.97;84.05
8451;BME280;4262;50.980;13.892;2022-10-26T07:29:06;50764.53;;;-142.97;82.81
8451;BME280;4262;50.980;13.892;2022-10-26T07:31:32;50750.88;;;-142.97;83.56
8451;BME280;4262;50.980;13.892;2022-10-26T07:33:59;50756.75;;;-142.97;82.93
8451;BME280;4262;50.980;13.892;2022-10-26T07:36:28;50791.84;;;-142.97;81.46
8451;BME280;4262;50.980;13.892;2022-10-26T07:38:54;50780.13;;;-142.97;82.16
8451;BME280;4262;50.980;13.892;2022-10-26T07:41:21;50785.97;;;-142.97;81.66
8451;BME280;4262;50.980;13.892;2022-10-26T07:43:48;50758.69;;;-142.97;81.92
8451;BME280;4262;50.980;13.892;2022-10-26T07:46:16;50754.78;;;-142.97;81.15
8451;BME280;4262;50.980;13.892;2022-10-26T07:48:44;50764.53;;;-142.97;81.22
8451;BME280;4262;50.980;13.892;2022-10-26T07:51:10;50784.03;;;-142.97;81.44
8451;BME280;4262;50.980;13.892;2022-10-26T07:53:37;50785.97;;;-142.97;83.13
8451;BME280;4262;50.980;13.892;2022-10-26T07:56:05;50772.34;;;-142.97;81.73
8451;BME280;4262;50.980;13.892;2022-10-26T07:58:32;50764.53;;;-142.97;82.28
8451;BME280;4262;50.980;13.892;2022-10-26T08:01:04;50752.84;;;-142.97;81.34
8451;BME280;4262;50.980;13.892;2022-10-26T08:03:33;50782.09;;;-142.97;81.22
8451;BME280;4262;50.980;13.892;2022-10-26T08:06:00;50805.50;;;-142.97;81.33
8451;BME280;4262;50.980;13.892;2022-10-26T08:08:29;50721.63;;;-142.97;80.80
8451;BME280;4262;50.980;13.892;2022-10-26T08:10:56;50782.09;;;-142.97;81.33
8451;BME280;4262;50.980;13.892;2022-10-26T08:13:23;50778.19;;;-142.97;81.28
8451;BME280;4262;50.980;13.892;2022-10-26T08:15:55;50793.78;;;-142.97;81.41
8451;BME280;4262;50.980;13.892;2022-10-26T08:18:23;50778.19;;;-142.97;81.97
8451;BME280;4262;50.980;13.892;2022-10-26T08:20:51;50741.13;;;-142.97;82.11
8451;BME280;4262;50.980;13.892;2022-10-26T08:23:18;50715.78;;;-142.97;81.01
8451;BME280;4262;50.980;13.892;2022-10-26T08:25:45;50657.28;;;-142.97;77.29
8451;BME280;4262;50.980;13.892;2022-10-26T08:28:13;50692.38;;;-142.97;71.56
8451;BME280;4262;50.980;13.892;2022-10-26T08:30:40;50708.00;;;-142.97;67.55
8451;BME280;4262;50.980;13.892;2022-10-26T08:33:08;50709.94;;;-142.97;67.05
8451;BME280;4262;50.980;13.892;2022-10-26T08:35:36;50692.38;;;-142.97;65.68
8451;BME280;4262;50.980;13.892;2022-10-26T08:38:05;50665.09;;;-142.97;65.31
8451;BME280;4262;50.980;13.892;2022-10-26T08:40:34;50692.38;;;-142.97;63.80
8451;BME280;4262;50.980;13.892;2022-10-26T08:43:05;50616.34;;;-142.97;62.25
8451;BME280;4262;50.980;13.892;2022-10-26T08:45:38;50610.50;;;-142.97;59.83
8451;BME280;4262;50.980;13.892;2022-10-26T08:48:10;50647.53;;;-142.97;57.38
8451;BME280;4262;50.980;13.892;2022-10-26T08:50:41;50585.16;;;-142.97;55.69
8451;BME280;4262;50.980;13.892;2022-10-26T08:53:18;50589.06;;;-142.97;53.63
8451;BME280;4262;50.980;13.892;2022-10-26T08:55:51;50594.91;;;-142.97;52.55
8451;BME280;4262;50.980;13.892;2022-10-26T08:58:21;50589.06;;;-142.97;50.97
8451;BME280;4262;50.980;13.892;2022-10-26T09:00:50;50557.84;;;-142.97;49.13
8451;BME280;4262;50.980;13.892;2022-10-26T09:03:18;50575.41;;;-142.97;47.89
8451;BME280;4262;50.980;13.892;2022-10-26T09:09:12;50577.34;;;-142.97;46.85
8451;BME280;4262;50.980;13.892;2022-10-26T09:11:51;50565.66;;;-142.97;45.41
8451;BME280;4262;50.980;13.892;2022-10-26T09:14:28;50542.25;;;-142.97;46.10
8451;BME280;4262;50.980;13.892;2022-10-26T09:17:05;50569.56;;;-142.97;49.21
8451;BME280;4262;50.980;13.892;2022-10-26T09:19:49;50530.56;;;-142.97;47.75
8451;BME280;4262;50.980;13.892;2022-10-26T09:22:21;50583.19;;;-142.97;44.85
8451;BME280;4262;50.980;13.892;2022-10-26T09:24:54;50577.34;;;-142.97;45.29
8451;BME280;4262;50.980;13.892;2022-10-26T09:27:25;50594.91;;;-142.97;46.61
8451;BME280;4262;50.980;13.892;2022-10-26T09:29:53;50526.66;;;-142.97;45.52
8451;BME280;4262;50.980;13.892;2022-10-26T09:32:25;50708.00;;;-142.97;44.07
8451;BME280;4262;50.980;13.892;2022-10-26T09:34:57;50674.84;;;-142.97;45.99
8451;BME280;4262;50.980;13.892;2022-10-26T09:37:27;50596.84;;;-142.97;47.21
8451;BME280;4262;50.980;13.892;2022-10-26T09:39:59;50674.84;;;-142.97;49.51
8451;BME280;4262;50.980;13.892;2022-10-26T09:42:37;50735.28;;;-142.97;48.29
8451;BME280;4262;50.980;13.892;2022-10-26T09:45:12;50524.72;;;-142.97;49.05
8451;BME280;4262;50.980;13.892;2022-10-26T09:47:45;50700.19;;;-142.97;48.47
8451;BME280;4262;50.980;13.892;2022-10-26T09:50:21;50561.75;;;-142.97;48.78
8451;BME280;4262;50.980;13.892;2022-10-26T09:52:49;50516.91;;;-142.97;49.18
8451;BME280;4262;50.980;13.892;2022-10-26T09:55:18;50676.78;;;-142.97;46.58
8451;BME280;4262;50.980;13.892;2022-10-26T09:57:50;50600.75;;;-142.97;46.22
8451;BME280;4262;50.980;13.892;2022-10-26T10:00:19;50516.91;;;-142.97;44.76
8451;BME280;4262;50.980;13.892;2022-10-26T10:02:49;50571.50;;;-142.97;43.35
8451;BME280;4262;50.980;13.892;2022-10-26T10:05:30;50522.75;;;-142.97;43.97
8451;BME280;4262;50.980;13.892;2022-10-26T10:08:15;50485.72;;;-142.97;42.61
8451;BME280;4262;50.980;13.892;2022-10-26T10:10:58;50524.72;;;-142.97;41.83
8451;BME280;4262;50.980;13.892;2022-10-26T10:13:28;50524.72;;;-142.97;41.56
8451;BME280;4262;50.980;13.892;2022-10-26T10:16:02;50606.59;;;-142.97;41.29
8451;BME280;4262;50.980;13.892;2022-10-26T10:18:30;50499.34;;;-142.97;42.33
8451;BME280;4262;50.980;13.892;2022-10-26T10:20:58;50577.34;;;-142.97;42.20
8451;BME280;4262;50.980;13.892;2022-10-26T10:23:28;50514.97;;;-142.97;40.85
8451;BME280;4262;50.980;13.892;2022-10-26T10:26:03;50532.50;;;-142.97;39.51
8451;BME280;4262;50.980;13.892;2022-10-26T10:28:31;50526.66;;;-142.97;40.40
8451;BME280;4262;50.980;13.892;2022-10-26T10:31:00;50495.47;;;-142.97;39.03
8451;BME280;4262;50.980;13.892;2022-10-26T10:33:35;50571.50;;;-142.97;39.62
8451;BME280;4262;50.980;13.892;2022-10-26T10:36:05;50540.31;;;-142.97;39.39
8451;BME280;4262;50.980;13.892;2022-10-26T10:38:37;50532.50;;;-142.97;39.10
8451;BME280;4262;50.980;13.892;2022-10-26T10:41:15;50544.19;;;-142.97;38.72
8451;BME280;4262;50.980;13.892;2022-10-26T10:43:46;50544.19;;;-142.97;37.84
8451;BME280;4262;50.980;13.892;2022-10-26T10:46:19;50518.84;;;-142.97;36.93
8451;BME280;4262;50.980;13.892;2022-10-26T10:48:51;50540.31;;;-142.97;36.81
8451;BME280;4262;50.980;13.892;2022-10-26T10:51:20;50491.56;;;-142.97;36.12
8451;BME280;4262;50.980;13.892;2022-10-26T10:53:51;50528.59;;;-142.97;34.38
8451;BME280;4262;50.980;13.892;2022-10-26T10:56:30;50518.84;;;-142.97;35.34
8451;BME280;4262;50.980;13.892;2022-10-26T10:59:12;50520.81;;;-142.97;36.06
8451;BME280;4262;50.980;13.892;2022-10-26T11:01:48;50501.31;;;-142.97;36.34
8451;BME280;4262;50.980;13.892;2022-10-26T11:04:30;50544.19;;;-142.97;35.36
8451;BME280;4262;50.980;13.892;2022-10-26T11:07:04;50546.16;;;-142.97;35.31
8451;BME280;4262;50.980;13.892;2022-10-26T11:09:34;50544.19;;;-142.97;34.36
8451;BME280;4262;50.980;13.892;2022-10-26T11:12:08;50497.41;;;-142.97;34.46
8451;BME280;4262;50.980;13.892;2022-10-26T11:14:42;50514.97;;;-142.97;34.37
8451;BME280;4262;50.980;13.892;2022-10-26T11:17:15;50532.50;;;-142.97;34.17
8451;BME280;4262;50.980;13.892;2022-10-26T11:19:47;50511.06;;;-142.97;34.94
8451;BME280;4262;50.980;13.892;2022-10-26T11:22:26;50503.25;;;-142.97;35.42
8451;BME280;4262;50.980;13.892;2022-10-26T11:24:57;50501.31;;;-142.97;36.29
8451;BME280;4262;50.980;13.892;2022-10-26T11:27:32;50509.09;;;-142.97;37.15
8451;BME280;4262;50.980;13.892;2022-10-26T11:30:02;50501.31;;;-142.97;37.84
8451;BME280;4262;50.980;13.892;2022-10-26T11:32:35;50509.09;;;-142.97;36.92
8451;BME280;4262;50.980;13.892;2022-10-26T11:35:12;50475.97;;;-142.97;36.77
8451;BME280;4262;50.980;13.892;2022-10-26T11:37:44;50526.66;;;-142.97;36.54
8451;BME280;4262;50.980;13.892;2022-10-26T11:40:23;50544.19;;;-142.97;36.72
8451;BME280;4262;50.980;13.892;2022-10-26T11:43:00;50532.50;;;-142.97;36.65
8451;BME280;4262;50.980;13.892;2022-10-26T11:45:33;50522.75;;;-142.97;37.42
8451;BME280;4262;50.980;13.892;2022-10-26T11:48:07;50483.75;;;-142.97;37.71
8451;BME280;4262;50.980;13.892;2022-10-26T11:50:40;50563.69;;;-142.97;37.14
8451;BME280;4262;50.980;13.892;2022-10-26T11:53:11;50528.59;;;-142.97;37.20
8451;BME280;4262;50.980;13.892;2022-10-26T11:55:40;50526.66;;;-142.97;36.92
8451;BME280;4262;50.980;13.892;2022-10-26T11:58:09;50530.56;;;-142.97;36.61
8451;BME280;4262;50.980;13.892;2022-10-26T12:00:44;50587.09;;;-142.97;36.26
8451;BME280;4262;50.980;13.892;2022-10-26T12:03:16;50672.91;;;-142.97;37.78
8451;BME280;4262;50.980;13.892;2022-10-26T12:05:48;50647.53;;;-142.97;38.03
8451;BME280;4262;50.980;13.892;2022-10-26T12:08:19;50647.53;;;-142.97;38.32
8451;BME280;4262;50.980;13.892;2022-10-26T12:10:51;50684.59;;;-142.97;40.42
8451;BME280;4262;50.980;13.892;2022-10-26T12:13:29;50708.00;;;-142.97;41.12
8451;BME280;4262;50.980;13.892;2022-10-26T12:16:00;50692.38;;;-142.97;41.27
8451;BME280;4262;50.980;13.892;2022-10-26T12:18:36;50686.53;;;-142.97;42.14
8451;BME280;4262;50.980;13.892;2022-10-26T12:21:05;50696.28;;;-142.97;41.99
8451;BME280;4262;50.980;13.892;2022-10-26T12:23:35;50672.91;;;-142.97;41.90
8451;BME280;4262;50.980;13.892;2022-10-26T12:29:31;50540.31;;;-142.97;41.78
8451;BME280;4262;50.980;13.892;2022-10-26T12:32:02;50587.09;;;-142.97;40.43
8451;BME280;4262;50.980;13.892;2022-10-26T12:34:56;50532.50;;;-142.97;40.62
8451;BME280;4262;50.980;13.892;2022-10-26T12:37:30;50546.16;;;-142.97;38.67
8451;BME280;4262;50.980;13.892;2022-10-26T12:40:37;50548.09;;;-142.97;39.04
8451;BME280;4262;50.980;13.892;2022-10-26T12:43:35;50622.19;;;-142.97;39.19
8451;BME280;4262;50.980;13.892;2022-10-26T12:52:32;50729.44;;;-142.97;40.68
8451;BME280;4262;50.980;13.892;2022-10-26T12:58:59;50651.44;;;-142.97;39.81
8451;BME280;4262;50.980;13.892;2022-10-26T13:05:06;50622.19;;;-142.97;39.40
8451;BME280;4262;50.980;13.892;2022-10-26T13:07:44;50678.75;;;-142.97;40.09
8451;BME280;4262;50.980;13.892;2022-10-26T13:10:18;50674.84;;;-142.97;40.27
8451;BME280;4262;50.980;13.892;2022-10-26T13:12:48;50688.50;;;-142.97;40.85
8451;BME280;4262;50.980;13.892;2022-10-26T13:15:22;50698.25;;;-142.97;41.29
8451;BME280;4262;50.980;13.892;2022-10-26T13:17:54;50715.78;;;-142.97;41.85
8451;BME280;4262;50.980;13.892;2022-10-26T13:20:22;50729.44;;;-142.97;42.98
8451;BME280;4262;50.980;13.892;2022-10-26T13:22:51;50743.09;;;-142.97;42.64
8451;BME280;4262;50.980;13.892;2022-10-26T13:25:22;50743.09;;;-142.97;44.33
8451;BME280;4262;50.980;13.892;2022-10-26T13:27:58;50708.00;;;-142.97;44.11
8451;BME280;4262;50.980;13.892;2022-10-26T13:30:45;50737.25;;;-142.97;44.99
8451;BME280;4262;50.980;13.892;2022-10-26T13:33:19;50719.69;;;-142.97;45.76